sensor_id;sensor_type;location;lat;lon;timestamp;temperature;humidity
2995;DHT22;35277;49.890;8.222;2023-04-03T00:01:09;22.10;67.90
2995;DHT22;35277;49.890;8.222;2023-04-03T00:03:37;22.10;67.90
2995;DHT22;35277;49.890;8.222;2023-04-03T00:06:05;22.10;67.90
2995;DHT22;35277;49.890;8.222;2023-04-03T00:08:34;22.10;68.00
2995;DHT22;35277;49.890;8.222;2023-04-03T00:11:02;22.10;68.00
2995;DHT22;35277;49.890;8.222;2023-04-03T00:13:31;22.10;68.00
2995;DHT22;35277;49.890;8.222;2023-04-03T00:15:59;22.10;68.00
2995;DHT22;35277;49.890;8.222;2023-04-03T00:18:27;22.10;68.00
2995;DHT22;35277;49.890;8.222;2023-04-03T00:20:55;22.10;68.00
2995;DHT22;35277;49.890;8.222;2023-04-03T00:23:22;22.10;68.00
2995;DHT22;35277;49.890;8.222;2023-04-03T00:25:52;22.10;68.00
2995;DHT22;35277;49.890;8.222;2023-04-03T00:28:20;22.10;68.00
2995;DHT22;35277;49.890;8.222;2023-04-03T00:30:49;22.10;68.00
2995;DHT22;35277;49.890;8.222;2023-04-03T00:33:18;22.10;68.00
2995;DHT22;35277;49.890;8.222;2023-04-03T00:35:48;22.10;68.00
2995;DHT22;35277;49.890;8.222;2023-04-03T00:38:16;22.10;68.00
2995;DHT22;35277;49.890;8.222;2023-04-03T00:40:46;22.10;68.00
2995;DHT22;35277;49.890;8.222;2023-04-03T00:43:18;22.10;68.10
2995;DHT22;35277;49.890;8.222;2023-04-03T00:45:47;22.10;68.10
2995;DHT22;35277;49.890;8.222;2023-04-03T00:48:20;22.10;68.10
2995;DHT22;35277;49.890;8.222;2023-04-03T00:50:48;22.10;68.10
2995;DHT22;35277;49.890;8.222;2023-04-03T00:53:18;22.10;68.10
2995;DHT22;35277;49.890;8.222;2023-04-03T00:55:47;22.10;68.10
2995;DHT22;35277;49.890;8.222;2023-04-03T00:58:18;22.10;68.10
2995;DHT22;35277;49.890;8.222;2023-04-03T01:00:50;22.10;68.10
2995;DHT22;35277;49.890;8.222;2023-04-03T01:03:24;22.10;68.10
2995;DHT22;35277;49.890;8.222;2023-04-03T01:05:53;22.10;68.10
2995;DHT22;35277;49.890;8.222;2023-04-03T01:08:21;22.10;68.10
2995;DHT22;35277;49.890;8.222;2023-04-03T01:10:49;22.10;68.10
2995;DHT22;35277;49.890;8.222;2023-04-03T01:13:24;22.10;68.10
2995;DHT22;35277;49.890;8.222;2023-04-03T01:15:53;22.10;68.10
2995;DHT22;35277;49.890;8.222;2023-04-03T01:18:24;22.10;68.90
2995;DHT22;35277;49.890;8.222;2023-04-03T01:24:06;22.10;68.10
2995;DHT22;35277;49.890;8.222;2023-04-03T01:26:39;22.10;68.10
2995;DHT22;35277;49.890;8.222;2023-04-03T01:29:08;22.10;68.10
2995;DHT22;35277;49.890;8.222;2023-04-03T01:31:56;22.10;68.20
2995;DHT22;35277;49.890;8.222;2023-04-03T01:34:25;22.10;68.20
2995;DHT22;35277;49.890;8.222;2023-04-03T01:36:53;22.10;68.10
2995;DHT22;35277;49.890;8.222;2023-04-03T01:39:22;22.10;68.20
2995;DHT22;35277;49.890;8.222;2023-04-03T01:41:51;22.10;68.20
2995;DHT22;35277;49.890;8.222;2023-04-03T01:44:28;22.10;68.20
2995;DHT22;35277;49.890;8.222;2023-04-03T01:46:57;22.10;68.20
2995;DHT22;35277;49.890;8.222;2023-04-03T01:49:27;22.10;68.20
2995;DHT22;35277;49.890;8.222;2023-04-03T01:51:55;22.10;68.20
2995;DHT22;35277;49.890;8.222;2023-04-03T01:54:23;22.10;68.20
2995;DHT22;35277;49.890;8.222;2023-04-03T01:56:51;22.10;68.20
2995;DHT22;35277;49.890;8.222;2023-04-03T01:59:20;22.10;68.20
2995;DHT22;35277;49.890;8.222;2023-04-03T02:01:48;22.10;68.20
2995;DHT22;35277;49.890;8.222;2023-04-03T02:04:17;22.10;68.20
2995;DHT22;35277;49.890;8.222;2023-04-03T02:06:45;22.10;68.20
2995;DHT22;35277;49.890;8.222;2023-04-03T02:09:13;22.10;68.20
2995;DHT22;35277;49.890;8.222;2023-04-03T02:11:41;22.10;68.20
2995;DHT22;35277;49.890;8.222;2023-04-03T02:14:09;22.10;68.20
2995;DHT22;35277;49.890;8.222;2023-04-03T02:16:37;22.10;68.20
2995;DHT22;35277;49.890;8.222;2023-04-03T02:19:05;22.10;68.20
2995;DHT22;35277;49.890;8.222;2023-04-03T02:21:34;22.10;68.20
2995;DHT22;35277;49.890;8.222;2023-04-03T02:24:02;22.10;68.20
2995;DHT22;35277;49.890;8.222;2023-04-03T02:26:30;22.10;68.20
2995;DHT22;35277;49.890;8.222;2023-04-03T02:28:57;22.10;68.20
2995;DHT22;35277;49.890;8.222;2023-04-03T02:31:25;22.10;68.30
2995;DHT22;35277;49.890;8.222;2023-04-03T02:33:53;22.10;68.20
2995;DHT22;35277;49.890;8.222;2023-04-03T02:36:21;22.10;68.30
2995;DHT22;35277;49.890;8.222;2023-04-03T02:38:55;22.10;68.30
2995;DHT22;35277;49.890;8.222;2023-04-03T02:41:23;22.10;68.30
2995;DHT22;35277;49.890;8.222;2023-04-03T02:43:53;22.10;68.30
2995;DHT22;35277;49.890;8.222;2023-04-03T02:46:20;22.10;68.30
2995;DHT22;35277;49.890;8.222;2023-04-03T02:48:48;22.10;68.30
2995;DHT22;35277;49.890;8.222;2023-04-03T02:51:16;22.10;68.30
2995;DHT22;35277;49.890;8.222;2023-04-03T02:53:44;22.10;68.30
2995;DHT22;35277;49.890;8.222;2023-04-03T02:56:18;22.10;68.30
2995;DHT22;35277;49.890;8.222;2023-04-03T02:58:46;22.10;68.30
2995;DHT22;35277;49.890;8.222;2023-04-03T03:01:16;22.10;68.30
2995;DHT22;35277;49.890;8.222;2023-04-03T03:03:44;22.10;68.30
2995;DHT22;35277;49.890;8.222;2023-04-03T03:06:13;22.10;68.30
2995;DHT22;35277;49.890;8.222;2023-04-03T03:08:42;22.10;68.30
2995;DHT22;35277;49.890;8.222;2023-04-03T03:11:11;22.10;68.30
2995;DHT22;35277;49.890;8.222;2023-04-03T03:13:40;22.10;68.40
2995;DHT22;35277;49.890;8.222;2023-04-03T03:16:07;22.10;68.30
2995;DHT22;35277;49.890;8.222;2023-04-03T03:18:36;22.10;68.30
2995;DHT22;35277;49.890;8.222;2023-04-03T03:21:04;22.10;68.30
2995;DHT22;35277;49.890;8.222;2023-04-03T03:23:32;22.00;68.30
2995;DHT22;35277;49.890;8.222;2023-04-03T03:26:02;22.10;68.40
2995;DHT22;35277;49.890;8.222;2023-04-03T03:28:31;22.10;68.40
2995;DHT22;35277;49.890;8.222;2023-04-03T03:31:00;22.00;68.30
2995;DHT22;35277;49.890;8.222;2023-04-03T03:33:29;22.10;68.40
2995;DHT22;35277;49.890;8.222;2023-04-03T03:35:57;22.10;68.40
2995;DHT22;35277;49.890;8.222;2023-04-03T03:38:25;22.00;68.30
2995;DHT22;35277;49.890;8.222;2023-04-03T03:40:53;22.10;68.40
2995;DHT22;35277;49.890;8.222;2023-04-03T03:43:22;22.00;68.30
2995;DHT22;35277;49.890;8.222;2023-04-03T03:45:52;22.00;68.30
2995;DHT22;35277;49.890;8.222;2023-04-03T03:48:23;22.00;68.30
2995;DHT22;35277;49.890;8.222;2023-04-03T03:50:51;22.00;68.30
2995;DHT22;35277;49.890;8.222;2023-04-03T03:53:23;22.00;68.30
2995;DHT22;35277;49.890;8.222;2023-04-03T03:55:54;22.00;68.30
2995;DHT22;35277;49.890;8.222;2023-04-03T03:58:25;22.00;68.30
2995;DHT22;35277;49.890;8.222;2023-04-03T04:00:52;22.00;68.30
2995;DHT22;35277;49.890;8.222;2023-04-03T04:03:20;22.00;68.30
2995;DHT22;35277;49.890;8.222;2023-04-03T04:05:51;22.00;68.30
2995;DHT22;35277;49.890;8.222;2023-04-03T04:08:19;22.00;68.30
2995;DHT22;35277;49.890;8.222;2023-04-03T04:10:47;22.00;68.30
2995;DHT22;35277;49.890;8.222;2023-04-03T04:13:17;22.00;68.30
2995;DHT22;35277;49.890;8.222;2023-04-03T04:15:45;22.00;68.20
2995;DHT22;35277;49.890;8.222;2023-04-03T04:18:15;22.00;68.20
2995;DHT22;35277;49.890;8.222;2023-04-03T04:20:46;22.00;68.20
2995;DHT22;35277;49.890;8.222;2023-04-03T04:23:17;22.00;68.20
2995;DHT22;35277;49.890;8.222;2023-04-03T04:25:47;22.00;68.10
2995;DHT22;35277;49.890;8.222;2023-04-03T04:28:16;22.00;68.00
2995;DHT22;35277;49.890;8.222;2023-04-03T04:30:44;22.00;68.00
2995;DHT22;35277;49.890;8.222;2023-04-03T04:33:14;22.00;68.00
2995;DHT22;35277;49.890;8.222;2023-04-03T04:35:43;22.00;67.90
2995;DHT22;35277;49.890;8.222;2023-04-03T04:38:11;22.00;67.90
2995;DHT22;35277;49.890;8.222;2023-04-03T04:40:41;22.00;67.80
2995;DHT22;35277;49.890;8.222;2023-04-03T04:43:08;22.10;67.90
2995;DHT22;35277;49.890;8.222;2023-04-03T04:45:37;22.00;67.80
2995;DHT22;35277;49.890;8.222;2023-04-03T04:48:05;22.00;67.70
2995;DHT22;35277;49.890;8.222;2023-04-03T04:50:33;22.00;67.70
2995;DHT22;35277;49.890;8.222;2023-04-03T04:53:01;22.00;67.70
2995;DHT22;35277;49.890;8.222;2023-04-03T04:55:29;22.00;67.70
2995;DHT22;35277;49.890;8.222;2023-04-03T04:57:58;22.00;67.70
2995;DHT22;35277;49.890;8.222;2023-04-03T05:00:26;22.00;67.70
2995;DHT22;35277;49.890;8.222;2023-04-03T05:02:55;22.00;67.80
2995;DHT22;35277;49.890;8.222;2023-04-03T05:05:23;22.00;68.10
2995;DHT22;35277;49.890;8.222;2023-04-03T05:07:51;22.00;68.30
2995;DHT22;35277;49.890;8.222;2023-04-03T05:10:19;22.00;68.20
2995;DHT22;35277;49.890;8.222;2023-04-03T05:12:47;22.10;68.10
2995;DHT22;35277;49.890;8.222;2023-04-03T05:15:16;22.10;67.80
2995;DHT22;35277;49.890;8.222;2023-04-03T05:17:44;22.10;67.60
2995;DHT22;35277;49.890;8.222;2023-04-03T05:20:14;22.00;67.30
2995;DHT22;35277;49.890;8.222;2023-04-03T05:22:44;22.10;67.30
2995;DHT22;35277;49.890;8.222;2023-04-03T05:25:13;22.10;67.30
2995;DHT22;35277;49.890;8.222;2023-04-03T05:27:43;22.00;67.10
2995;DHT22;35277;49.890;8.222;2023-04-03T05:30:12;22.10;67.20
2995;DHT22;35277;49.890;8.222;2023-04-03T05:32:42;22.10;67.20
2995;DHT22;35277;49.890;8.222;2023-04-03T05:35:30;22.10;67.20
2995;DHT22;35277;49.890;8.222;2023-04-03T05:38:01;22.10;67.10
2995;DHT22;35277;49.890;8.222;2023-04-03T05:40:31;22.10;67.10
2995;DHT22;35277;49.890;8.222;2023-04-03T05:42:59;22.10;67.10
2995;DHT22;35277;49.890;8.222;2023-04-03T05:45:30;22.00;66.90
2995;DHT22;35277;49.890;8.222;2023-04-03T05:48:00;22.10;67.00
2995;DHT22;35277;49.890;8.222;2023-04-03T05:50:29;22.00;66.90
2995;DHT22;35277;49.890;8.222;2023-04-03T05:52:58;22.00;66.80
2995;DHT22;35277;49.890;8.222;2023-04-03T05:55:29;22.00;66.80
2995;DHT22;35277;49.890;8.222;2023-04-03T05:57:57;22.00;66.80
2995;DHT22;35277;49.890;8.222;2023-04-03T06:00:25;22.00;66.70
2995;DHT22;35277;49.890;8.222;2023-04-03T06:03:01;22.00;66.70
2995;DHT22;35277;49.890;8.222;2023-04-03T06:05:29;22.00;66.70
2995;DHT22;35277;49.890;8.222;2023-04-03T06:07:57;22.00;66.60
2995;DHT22;35277;49.890;8.222;2023-04-03T06:10:25;22.00;66.60
2995;DHT22;35277;49.890;8.222;2023-04-03T06:12:53;22.00;66.60
2995;DHT22;35277;49.890;8.222;2023-04-03T06:15:21;22.00;66.60
2995;DHT22;35277;49.890;8.222;2023-04-03T06:17:49;22.00;66.60
2995;DHT22;35277;49.890;8.222;2023-04-03T06:20:18;22.10;66.80
2995;DHT22;35277;49.890;8.222;2023-04-03T06:22:46;22.00;66.70
2995;DHT22;35277;49.890;8.222;2023-04-03T06:25:14;22.10;66.80
2995;DHT22;35277;49.890;8.222;2023-04-03T06:27:43;22.10;66.70
2995;DHT22;35277;49.890;8.222;2023-04-03T06:30:12;22.10;66.70
2995;DHT22;35277;49.890;8.222;2023-04-03T06:32:40;22.10;66.80
2995;DHT22;35277;49.890;8.222;2023-04-03T06:35:08;22.10;66.80
2995;DHT22;35277;49.890;8.222;2023-04-03T06:37:37;22.10;66.70
2995;DHT22;35277;49.890;8.222;2023-04-03T06:40:06;22.10;66.70
2995;DHT22;35277;49.890;8.222;2023-04-03T06:42:34;22.10;66.60
2995;DHT22;35277;49.890;8.222;2023-04-03T06:45:10;22.10;66.70
2995;DHT22;35277;49.890;8.222;2023-04-03T06:47:38;22.10;66.60
2995;DHT22;35277;49.890;8.222;2023-04-03T06:50:06;22.10;66.60
2995;DHT22;35277;49.890;8.222;2023-04-03T06:52:37;22.10;67.50
2995;DHT22;35277;49.890;8.222;2023-04-03T06:55:07;22.10;66.60
2995;DHT22;35277;49.890;8.222;2023-04-03T06:57:35;22.10;66.60
2995;DHT22;35277;49.890;8.222;2023-04-03T07:00:04;22.10;66.60
2995;DHT22;35277;49.890;8.222;2023-04-03T07:02:32;22.10;66.50
2995;DHT22;35277;49.890;8.222;2023-04-03T07:05:00;22.10;66.50
2995;DHT22;35277;49.890;8.222;2023-04-03T07:07:27;22.10;66.50
2995;DHT22;35277;49.890;8.222;2023-04-03T07:09:57;22.10;66.50
2995;DHT22;35277;49.890;8.222;2023-04-03T07:12:24;22.10;66.50
2995;DHT22;35277;49.890;8.222;2023-04-03T07:14:52;22.10;66.50
2995;DHT22;35277;49.890;8.222;2023-04-03T07:17:20;22.10;66.50
2995;DHT22;35277;49.890;8.222;2023-04-03T07:19:48;22.10;66.40
2995;DHT22;35277;49.890;8.222;2023-04-03T07:22:16;22.10;66.40
2995;DHT22;35277;49.890;8.222;2023-04-03T07:24:44;22.10;66.40
2995;DHT22;35277;49.890;8.222;2023-04-03T07:27:13;22.10;66.40
2995;DHT22;35277;49.890;8.222;2023-04-03T07:29:41;22.10;66.40
2995;DHT22;35277;49.890;8.222;2023-04-03T07:32:09;22.10;66.40
2995;DHT22;35277;49.890;8.222;2023-04-03T07:34:37;22.20;66.50
2995;DHT22;35277;49.890;8.222;2023-04-03T07:37:05;22.20;66.50
2995;DHT22;35277;49.890;8.222;2023-04-03T07:39:33;22.20;66.50
2995;DHT22;35277;49.890;8.222;2023-04-03T07:42:01;22.10;66.40
2995;DHT22;35277;49.890;8.222;2023-04-03T07:44:30;22.20;66.40
2995;DHT22;35277;49.890;8.222;2023-04-03T07:46:59;22.20;66.40
2995;DHT22;35277;49.890;8.222;2023-04-03T07:49:27;22.20;66.40
2995;DHT22;35277;49.890;8.222;2023-04-03T07:51:55;22.20;66.30
2995;DHT22;35277;49.890;8.222;2023-04-03T07:54:22;22.20;66.30
2995;DHT22;35277;49.890;8.222;2023-04-03T07:56:50;22.20;66.30
2995;DHT22;35277;49.890;8.222;2023-04-03T07:59:18;22.20;66.30
2995;DHT22;35277;49.890;8.222;2023-04-03T08:01:47;22.20;66.20
2995;DHT22;35277;49.890;8.222;2023-04-03T08:04:15;22.20;66.20
2995;DHT22;35277;49.890;8.222;2023-04-03T08:06:42;22.20;66.20
2995;DHT22;35277;49.890;8.222;2023-04-03T08:09:13;22.20;66.20
2995;DHT22;35277;49.890;8.222;2023-04-03T08:11:41;22.20;66.20
2995;DHT22;35277;49.890;8.222;2023-04-03T08:14:09;22.20;66.20
2995;DHT22;35277;49.890;8.222;2023-04-03T08:16:42;22.20;66.20
2995;DHT22;35277;49.890;8.222;2023-04-03T08:19:12;22.20;66.20
2995;DHT22;35277;49.890;8.222;2023-04-03T08:21:51;22.20;66.20
2995;DHT22;35277;49.890;8.222;2023-04-03T08:24:19;22.20;66.10
2995;DHT22;35277;49.890;8.222;2023-04-03T08:26:47;22.20;66.10
2995;DHT22;35277;49.890;8.222;2023-04-03T08:29:15;22.20;66.10
2995;DHT22;35277;49.890;8.222;2023-04-03T08:31:42;22.20;66.00
2995;DHT22;35277;49.890;8.222;2023-04-03T08:34:14;22.20;66.00
2995;DHT22;35277;49.890;8.222;2023-04-03T08:36:42;22.20;66.10
2995;DHT22;35277;49.890;8.222;2023-04-03T08:39:10;22.20;66.00
2995;DHT22;35277;49.890;8.222;2023-04-03T08:41:40;22.20;66.00
2995;DHT22;35277;49.890;8.222;2023-04-03T08:44:17;22.20;65.90
2995;DHT22;35277;49.890;8.222;2023-04-03T08:47:02;22.20;65.90
2995;DHT22;35277;49.890;8.222;2023-04-03T08:49:39;22.20;65.90
2995;DHT22;35277;49.890;8.222;2023-04-03T08:52:16;22.20;65.90
2995;DHT22;35277;49.890;8.222;2023-04-03T08:54:49;22.20;65.80
2995;DHT22;35277;49.890;8.222;2023-04-03T08:57:23;22.20;65.80
2995;DHT22;35277;49.890;8.222;2023-04-03T08:59:52;22.20;65.80
2995;DHT22;35277;49.890;8.222;2023-04-03T09:02:25;22.20;65.80
2995;DHT22;35277;49.890;8.222;2023-04-03T09:04:56;22.20;65.80
2995;DHT22;35277;49.890;8.222;2023-04-03T09:07:30;22.20;65.70
2995;DHT22;35277;49.890;8.222;2023-04-03T09:10:00;22.20;65.70
2995;DHT22;35277;49.890;8.222;2023-04-03T09:12:34;22.20;65.60
2995;DHT22;35277;49.890;8.222;2023-04-03T09:15:10;22.20;65.60
2995;DHT22;35277;49.890;8.222;2023-04-03T09:17:57;22.20;65.60
2995;DHT22;35277;49.890;8.222;2023-04-03T09:20:36;22.20;65.60
2995;DHT22;35277;49.890;8.222;2023-04-03T09:23:13;22.20;65.60
2995;DHT22;35277;49.890;8.222;2023-04-03T09:25:43;22.20;65.60
2995;DHT22;35277;49.890;8.222;2023-04-03T09:28:11;22.20;65.60
2995;DHT22;35277;49.890;8.222;2023-04-03T09:30:39;22.20;65.60
2995;DHT22;35277;49.890;8.222;2023-04-03T09:33:08;22.20;65.60
2995;DHT22;35277;49.890;8.222;2023-04-03T09:35:40;22.20;65.60
2995;DHT22;35277;49.890;8.222;2023-04-03T09:38:20;22.20;65.60
2995;DHT22;35277;49.890;8.222;2023-04-03T09:40:49;22.20;65.60
2995;DHT22;35277;49.890;8.222;2023-04-03T09:43:21;22.20;65.60
2995;DHT22;35277;49.890;8.222;2023-04-03T09:45:50;22.20;65.60
2995;DHT22;35277;49.890;8.222;2023-04-03T09:48:19;22.20;65.60
2995;DHT22;35277;49.890;8.222;2023-04-03T09:50:58;22.20;65.60
2995;DHT22;35277;49.890;8.222;2023-04-03T09:53:33;22.20;65.60
2995;DHT22;35277;49.890;8.222;2023-04-03T09:56:03;22.20;65.50
2995;DHT22;35277;49.890;8.222;2023-04-03T09:58:35;22.20;65.50
2995;DHT22;35277;49.890;8.222;2023-04-03T10:01:27;22.20;65.40
2995;DHT22;35277;49.890;8.222;2023-04-03T10:04:09;22.20;65.30
2995;DHT22;35277;49.890;8.222;2023-04-03T10:06:41;22.20;65.20
2995;DHT22;35277;49.890;8.222;2023-04-03T10:09:21;22.20;65.20
2995;DHT22;35277;49.890;8.222;2023-04-03T10:12:01;22.30;65.30
2995;DHT22;35277;49.890;8.222;2023-04-03T10:14:32;22.30;65.30
2995;DHT22;35277;49.890;8.222;2023-04-03T10:17:09;22.30;65.30
2995;DHT22;35277;49.890;8.222;2023-04-03T10:19:43;22.30;65.30
2995;DHT22;35277;49.890;8.222;2023-04-03T10:22:19;22.30;65.30
2995;DHT22;35277;49.890;8.222;2023-04-03T10:24:55;22.30;65.30
2995;DHT22;35277;49.890;8.222;2023-04-03T10:27:33;22.30;65.30
2995;DHT22;35277;49.890;8.222;2023-04-03T10:30:10;22.40;65.40
2995;DHT22;35277;49.890;8.222;2023-04-03T10:32:53;22.30;65.30
2995;DHT22;35277;49.890;8.222;2023-04-03T10:35:34;22.30;65.30
2995;DHT22;35277;49.890;8.222;2023-04-03T10:38:12;22.30;65.20
2995;DHT22;35277;49.890;8.222;2023-04-03T10:40:49;22.40;65.40
2995;DHT22;35277;49.890;8.222;2023-04-03T10:43:28;22.40;65.40
2995;DHT22;35277;49.890;8.222;2023-04-03T10:46:02;22.40;65.40
2995;DHT22;35277;49.890;8.222;2023-04-03T10:48:40;22.40;65.30
2995;DHT22;35277;49.890;8.222;2023-04-03T10:51:19;22.40;65.30
2995;DHT22;35277;49.890;8.222;2023-04-03T10:53:56;22.40;65.30
2995;DHT22;35277;49.890;8.222;2023-04-03T10:56:31;22.40;65.30
2995;DHT22;35277;49.890;8.222;2023-04-03T10:59:11;22.40;65.30
2995;DHT22;35277;49.890;8.222;2023-04-03T11:01:42;22.40;65.20
2995;DHT22;35277;49.890;8.222;2023-04-03T11:04:12;22.40;65.20
2995;DHT22;35277;49.890;8.222;2023-04-03T11:06:46;22.40;65.20
2995;DHT22;35277;49.890;8.222;2023-04-03T11:09:22;22.30;65.10
2995;DHT22;35277;49.890;8.222;2023-04-03T11:11:53;22.40;65.20
2995;DHT22;35277;49.890;8.222;2023-04-03T11:14:26;22.40;65.20
2995;DHT22;35277;49.890;8.222;2023-04-03T11:17:04;22.40;65.30
2995;DHT22;35277;49.890;8.222;2023-04-03T11:19:35;22.40;65.10
2995;DHT22;35277;49.890;8.222;2023-04-03T11:22:10;22.40;65.10
2995;DHT22;35277;49.890;8.222;2023-04-03T11:24:43;22.40;65.10
2995;DHT22;35277;49.890;8.222;2023-04-03T11:27:17;22.40;65.10
2995;DHT22;35277;49.890;8.222;2023-04-03T11:29:50;22.40;65.00
2995;DHT22;35277;49.890;8.222;2023-04-03T11:32:31;22.40;65.00
2995;DHT22;35277;49.890;8.222;2023-04-03T11:35:04;22.40;65.00
2995;DHT22;35277;49.890;8.222;2023-04-03T11:37:35;22.40;64.90
2995;DHT22;35277;49.890;8.222;2023-04-03T11:40:08;22.40;64.90
2995;DHT22;35277;49.890;8.222;2023-04-03T11:42:49;22.40;64.80
2995;DHT22;35277;49.890;8.222;2023-04-03T11:45:49;22.40;64.80
2995;DHT22;35277;49.890;8.222;2023-04-03T11:48:42;22.50;64.80
2995;DHT22;35277;49.890;8.222;2023-04-03T11:51:40;22.40;64.70
2995;DHT22;35277;49.890;8.222;2023-04-03T11:54:42;22.50;64.70
2995;DHT22;35277;49.890;8.222;2023-04-03T12:07:01;22.50;64.60
2995;DHT22;35277;49.890;8.222;2023-04-03T12:12:27;22.50;64.50
2995;DHT22;35277;49.890;8.222;2023-04-03T12:14:55;22.50;64.50
2995;DHT22;35277;49.890;8.222;2023-04-03T12:17:27;22.50;64.50
2995;DHT22;35277;49.890;8.222;2023-04-03T12:19:55;22.50;64.50
2995;DHT22;35277;49.890;8.222;2023-04-03T12:22:24;22.50;64.50
2995;DHT22;35277;49.890;8.222;2023-04-03T12:24:53;22.50;64.40
2995;DHT22;35277;49.890;8.222;2023-04-03T12:27:34;22.50;64.40
2995;DHT22;35277;49.890;8.222;2023-04-03T12:30:13;22.50;64.30
2995;DHT22;35277;49.890;8.222;2023-04-03T12:33:03;22.50;64.30
2995;DHT22;35277;49.890;8.222;2023-04-03T12:35:44;22.50;64.30
2995;DHT22;35277;49.890;8.222;2023-04-03T12:38:30;22.50;64.30
2995;DHT22;35277;49.890;8.222;2023-04-03T12:44:18;22.50;64.30
2995;DHT22;35277;49.890;8.222;2023-04-03T12:46:50;22.60;64.30
2995;DHT22;35277;49.890;8.222;2023-04-03T12:49:31;22.60;64.20
2995;DHT22;35277;49.890;8.222;2023-04-03T12:52:03;22.60;64.20
2995;DHT22;35277;49.890;8.222;2023-04-03T12:54:36;22.60;64.10
2995;DHT22;35277;49.890;8.222;2023-04-03T12:57:11;22.60;64.10
2995;DHT22;35277;49.890;8.222;2023-04-03T12:59:39;22.60;64.10
2995;DHT22;35277;49.890;8.222;2023-04-03T13:02:19;22.60;65.00
2995;DHT22;35277;49.890;8.222;2023-04-03T13:04:48;22.60;64.10
2995;DHT22;35277;49.890;8.222;2023-04-03T13:07:25;22.60;64.00
2995;DHT22;35277;49.890;8.222;2023-04-03T13:09:57;22.60;64.00
2995;DHT22;35277;49.890;8.222;2023-04-03T13:12:26;22.60;64.00
2995;DHT22;35277;49.890;8.222;2023-04-03T13:14:59;22.60;64.00
2995;DHT22;35277;49.890;8.222;2023-04-03T13:17:28;22.60;64.00
2995;DHT22;35277;49.890;8.222;2023-04-03T13:20:10;22.60;64.00
2995;DHT22;35277;49.890;8.222;2023-04-03T13:22:42;22.60;63.90
2995;DHT22;35277;49.890;8.222;2023-04-03T13:25:14;22.60;63.90
2995;DHT22;35277;49.890;8.222;2023-04-03T13:27:44;22.60;63.80
2995;DHT22;35277;49.890;8.222;2023-04-03T13:30:24;22.60;63.80
2995;DHT22;35277;49.890;8.222;2023-04-03T13:32:54;22.70;63.90
2995;DHT22;35277;49.890;8.222;2023-04-03T13:35:29;22.70;63.80
2995;DHT22;35277;49.890;8.222;2023-04-03T13:38:00;22.70;63.70
2995;DHT22;35277;49.890;8.222;2023-04-03T13:40:29;22.70;63.70
2995;DHT22;35277;49.890;8.222;2023-04-03T13:43:18;22.70;63.70
2995;DHT22;35277;49.890;8.222;2023-04-03T13:46:23;22.70;63.70
2995;DHT22;35277;49.890;8.222;2023-04-03T13:48:53;22.70;63.70
2995;DHT22;35277;49.890;8.222;2023-04-03T13:51:23;22.70;63.70
2995;DHT22;35277;49.890;8.222;2023-04-03T13:53:53;22.80;63.70
2995;DHT22;35277;49.890;8.222;2023-04-03T13:56:27;22.70;63.60
2995;DHT22;35277;49.890;8.222;2023-04-03T13:59:02;22.80;63.60
2995;DHT22;35277;49.890;8.222;2023-04-03T14:01:40;22.80;63.60
2995;DHT22;35277;49.890;8.222;2023-04-03T14:04:15;22.80;63.50
2995;DHT22;35277;49.890;8.222;2023-04-03T14:06:44;22.80;63.50
2995;DHT22;35277;49.890;8.222;2023-04-03T14:09:12;22.90;63.60
2995;DHT22;35277;49.890;8.222;2023-04-03T14:11:43;22.90;63.60
2995;DHT22;35277;49.890;8.222;2023-04-03T14:14:14;22.90;63.50
2995;DHT22;35277;49.890;8.222;2023-04-03T14:16:45;22.90;63.50
2995;DHT22;35277;49.890;8.222;2023-04-03T14:19:21;22.90;63.50
2995;DHT22;35277;49.890;8.222;2023-04-03T14:21:49;22.90;63.30
2995;DHT22;35277;49.890;8.222;2023-04-03T14:24:17;23.00;63.40
2995;DHT22;35277;49.890;8.222;2023-04-03T14:26:47;23.00;63.30
2995;DHT22;35277;49.890;8.222;2023-04-03T14:29:15;23.00;63.30
2995;DHT22;35277;49.890;8.222;2023-04-03T14:31:45;23.00;63.20
2995;DHT22;35277;49.890;8.222;2023-04-03T14:34:14;23.00;63.20
2995;DHT22;35277;49.890;8.222;2023-04-03T14:36:44;23.00;63.20
2995;DHT22;35277;49.890;8.222;2023-04-03T14:39:16;23.10;63.20
2995;DHT22;35277;49.890;8.222;2023-04-03T14:41:46;23.10;63.20
2995;DHT22;35277;49.890;8.222;2023-04-03T14:44:14;23.10;63.20
2995;DHT22;35277;49.890;8.222;2023-04-03T14:46:43;23.10;63.20
2995;DHT22;35277;49.890;8.222;2023-04-03T14:49:25;23.10;63.10
2995;DHT22;35277;49.890;8.222;2023-04-03T14:51:54;23.10;63.10
2995;DHT22;35277;49.890;8.222;2023-04-03T14:54:23;23.20;63.20
2995;DHT22;35277;49.890;8.222;2023-04-03T14:56:57;23.20;63.20
2995;DHT22;35277;49.890;8.222;2023-04-03T14:59:25;23.20;63.20
2995;DHT22;35277;49.890;8.222;2023-04-03T15:01:53;23.30;63.20
2995;DHT22;35277;49.890;8.222;2023-04-03T15:04:21;23.30;63.20
2995;DHT22;35277;49.890;8.222;2023-04-03T15:06:51;23.30;63.20
2995;DHT22;35277;49.890;8.222;2023-04-03T15:09:21;23.30;63.20
2995;DHT22;35277;49.890;8.222;2023-04-03T15:11:49;23.30;63.10
2995;DHT22;35277;49.890;8.222;2023-04-03T15:14:19;23.30;62.80
2995;DHT22;35277;49.890;8.222;2023-04-03T15:17:03;23.30;62.30
2995;DHT22;35277;49.890;8.222;2023-04-03T15:19:35;23.30;61.40
2995;DHT22;35277;49.890;8.222;2023-04-03T15:22:03;23.30;61.10
2995;DHT22;35277;49.890;8.222;2023-04-03T15:24:31;23.30;60.70
2995;DHT22;35277;49.890;8.222;2023-04-03T15:27:00;23.30;59.50
2995;DHT22;35277;49.890;8.222;2023-04-03T15:29:29;23.20;59.10
2995;DHT22;35277;49.890;8.222;2023-04-03T15:31:57;23.20;58.90
2995;DHT22;35277;49.890;8.222;2023-04-03T15:34:25;23.20;58.60
2995;DHT22;35277;49.890;8.222;2023-04-03T15:36:52;23.20;58.30
2995;DHT22;35277;49.890;8.222;2023-04-03T15:39:21;23.20;57.90
2995;DHT22;35277;49.890;8.222;2023-04-03T15:41:49;23.20;57.60
2995;DHT22;35277;49.890;8.222;2023-04-03T15:44:18;23.20;57.40
2995;DHT22;35277;49.890;8.222;2023-04-03T15:46:48;23.20;57.00
2995;DHT22;35277;49.890;8.222;2023-04-03T15:49:18;23.20;56.70
2995;DHT22;35277;49.890;8.222;2023-04-03T15:51:46;23.20;56.40
2995;DHT22;35277;49.890;8.222;2023-04-03T15:54:14;23.20;56.00
2995;DHT22;35277;49.890;8.222;2023-04-03T15:56:42;23.20;55.60
2995;DHT22;35277;49.890;8.222;2023-04-03T15:59:10;23.20;55.40
2995;DHT22;35277;49.890;8.222;2023-04-03T16:01:39;23.20;55.00
2995;DHT22;35277;49.890;8.222;2023-04-03T16:04:09;23.20;54.70
2995;DHT22;35277;49.890;8.222;2023-04-03T16:06:37;23.20;54.30
2995;DHT22;35277;49.890;8.222;2023-04-03T16:09:06;23.20;54.10
2995;DHT22;35277;49.890;8.222;2023-04-03T16:11:34;23.20;53.80
2995;DHT22;35277;49.890;8.222;2023-04-03T16:14:05;23.20;53.70
2995;DHT22;35277;49.890;8.222;2023-04-03T16:16:34;23.20;53.50
2995;DHT22;35277;49.890;8.222;2023-04-03T16:19:03;23.20;53.30
2995;DHT22;35277;49.890;8.222;2023-04-03T16:21:33;23.20;53.20
2995;DHT22;35277;49.890;8.222;2023-04-03T16:24:01;23.20;53.10
2995;DHT22;35277;49.890;8.222;2023-04-03T16:26:29;23.20;53.20
2995;DHT22;35277;49.890;8.222;2023-04-03T16:28:56;23.30;53.70